Ashley, North Dakota
Current Conditions -  °F | °C
As of 10:35 PM on Saturday 22 Nov 2014 (Local Time) from K7L2 Reporting Station
Clear Clear  
Wind Chill: -3°   Ceiling: Unl
Heat Index: -3°   Visibility: 10mi
Dew Point: -3°   Wind: 0mph
Humidity: 100%   Direction: NA
Pressure: 29.37"   Gusts: NA
Location:  46.03°N, 99.37°W
Report Text: K7L2 230435Z AUTO 00000KT 10SM CLR M03/M03 A2937 RMK AO2
Loading
Personal Weather Stations






























Interactive Weather Map New forecast layout! Learn more

10-Day Weather Forecast

Advertisements
Track Severe Weather on mobile